Time;durP1;ratioP1;P1;durP2;ratioP2;P2;SDS_P1;SDS_P2;PMS_P1;PMS_P2;Temp;Humidity;BMP_temperature;BMP_pressure;BME280_temperature;BME280_humidity;BME280_pressure;Samples;Min_cycle;Max_cycle;Signal;HPM_P1;HPM_P2
2022/10/04 00:00:22;;;;;;;24.42;18.33;;;;;;;10.89;100.00;102277.72;4994113;28;20493;-60
2022/10/04 00:02:48;;;;;;;23.45;17.15;;;;;;;10.87;100.00;102274.41;4994430;28;20026;-60
2022/10/04 00:05:17;;;;;;;26.02;18.40;;;;;;;10.84;100.00;102267.47;4994256;28;20044;-60
2022/10/04 00:07:52;;;;;;;26.02;18.65;;;;;;;10.83;100.00;102273.31;4994675;28;20466;-61
2022/10/04 00:10:33;;;;;;;23.48;17.98;;;;;;;10.77;100.00;102272.44;4994314;28;20124;-61
2022/10/04 00:13:04;;;;;;;27.50;19.23;;;;;;;10.74;100.00;102271.06;4992589;28;20057;-61
2022/10/04 00:15:39;;;;;;;25.75;18.13;;;;;;;10.82;100.00;102277.16;4994026;28;20052;-61
2022/10/04 00:18:10;;;;;;;27.08;18.83;;;;;;;10.80;100.00;102268.31;4993855;28;20046;-58
2022/10/04 00:20:49;;;;;;;24.48;18.02;;;;;;;10.76;100.00;102263.31;4993693;28;20052;-60
2022/10/04 00:23:23;;;;;;;24.85;17.85;;;;;;;10.73;100.00;102254.72;4994063;28;20069;-60
2022/10/04 00:25:51;;;;;;;23.85;18.23;;;;;;;10.66;100.00;102245.84;4994153;28;20140;-60
2022/10/04 00:28:19;;;;;;;26.25;19.10;;;;;;;10.61;100.00;102249.44;4993384;28;20470;-60
2022/10/04 00:31:05;;;;;;;25.27;17.60;;;;;;;10.54;100.00;102246.91;5005637;28;20029;-61
2022/10/04 00:33:39;;;;;;;25.20;17.80;;;;;;;10.55;100.00;102253.28;5012788;28;20033;-60
2022/10/04 00:36:22;;;;;;;24.05;17.70;;;;;;;10.52;100.00;102246.38;5012968;28;20125;-61
2022/10/04 00:39:07;;;;;;;28.15;19.70;;;;;;;10.45;100.00;102231.94;5011728;28;20504;-60
2022/10/04 00:41:41;;;;;;;26.00;18.38;;;;;;;10.41;100.00;102237.19;5013356;28;20026;-60
2022/10/04 00:44:17;;;;;;;26.70;18.80;;;;;;;10.38;100.00;102240.50;5013370;28;20033;-61
2022/10/04 00:46:45;;;;;;;28.60;19.00;;;;;;;10.34;100.00;102244.88;5013763;28;20365;-60
2022/10/04 00:49:12;;;;;;;25.85;18.83;;;;;;;10.24;100.00;102218.03;5013364;28;20022;-60
2022/10/04 00:52:00;;;;;;;26.52;18.55;;;;;;;10.25;100.00;102225.19;5013425;28;20048;-60
2022/10/04 00:54:35;;;;;;;25.85;18.65;;;;;;;10.28;100.00;102238.50;5013393;28;20030;-59
2022/10/04 00:57:06;;;;;;;27.05;18.95;;;;;;;10.30;100.00;102241.81;5012519;28;20034;-60
2022/10/04 00:59:42;;;;;;;25.27;18.92;;;;;;;10.21;100.00;102226.84;5012939;28;20034;-60
2022/10/04 01:02:17;;;;;;;26.70;19.08;;;;;;;10.27;100.00;102236.00;5012890;28;20022;-61
2022/10/04 01:04:52;;;;;;;29.08;18.85;;;;;;;10.24;100.00;102226.31;5012605;28;20025;-61
2022/10/04 01:07:32;;;;;;;25.02;17.92;;;;;;;10.21;100.00;102217.69;5012615;28;20028;-60
2022/10/04 01:10:06;;;;;;;29.30;19.73;;;;;;;10.21;100.00;102210.25;5012705;28;20025;-61
2022/10/04 01:12:37;;;;;;;26.33;18.95;;;;;;;10.22;100.00;102202.78;5012823;28;20109;-61
2022/10/04 01:15:35;;;;;;;26.08;18.40;;;;;;;10.22;100.00;102200.00;5012731;28;20026;-61
2022/10/04 01:18:27;;;;;;;27.75;18.95;;;;;;;10.19;100.00;102195.84;5012819;28;20462;-62
2022/10/04 01:21:19;;;;;;;27.48;18.55;;;;;;;10.20;100.00;102205.81;5011412;28;20441;-60
2022/10/04 01:23:45;;;;;;;24.80;18.55;;;;;;;10.15;100.00;102206.63;5009935;28;20046;-61
2022/10/04 01:26:29;;;;;;;26.55;19.58;;;;;;;10.15;100.00;102203.03;5012631;28;20058;-59
2022/10/04 01:29:14;;;;;;;26.33;18.67;;;;;;;10.11;100.00;102204.69;5012664;28;20057;-60
2022/10/04 01:31:43;;;;;;;26.77;18.75;;;;;;;10.07;100.00;102209.06;5012475;28;20033;-60
2022/10/04 01:34:12;;;;;;;27.20;17.92;;;;;;;9.98;100.00;102197.72;5012467;28;20163;-60
2022/10/04 01:36:37;;;;;;;25.80;18.85;;;;;;;10.04;100.00;102206.84;5012445;28;20513;-60
2022/10/04 01:39:04;;;;;;;25.73;18.95;;;;;;;10.03;100.00;102197.72;5011911;28;20034;-61
2022/10/04 01:41:29;;;;;;;26.42;19.30;;;;;;;10.06;100.00;102196.38;5012541;28;20105;-60
2022/10/04 01:43:59;;;;;;;24.98;18.83;;;;;;;10.03;100.00;102196.91;5011859;28;20117;-60
2022/10/04 01:46:30;;;;;;;26.92;18.58;;;;;;;10.02;100.00;102193.28;5012419;28;20033;-61
2022/10/04 01:49:00;;;;;;;27.55;18.70;;;;;;;10.01;100.00;102183.34;5011075;28;20041;-59
2022/10/04 01:51:31;;;;;;;27.65;17.65;;;;;;;10.02;100.00;102184.19;5012617;28;20030;-60
2022/10/04 01:54:16;;;;;;;24.90;18.40;;;;;;;10.01;100.00;102182.50;5012777;28;20460;-60
2022/10/04 01:56:55;;;;;;;27.70;18.27;;;;;;;9.98;100.00;102178.34;5011759;28;20026;-60
2022/10/04 01:59:30;;;;;;;27.80;18.02;;;;;;;9.95;100.00;102171.44;5011828;28;20128;-60
2022/10/04 02:02:05;;;;;;;27.30;19.42;;;;;;;9.97;100.00;102177.50;5012214;28;20026;-60
2022/10/04 02:04:36;;;;;;;25.83;18.25;;;;;;;9.93;100.00;102176.41;5011737;28;20029;-59
2022/10/04 02:07:08;;;;;;;27.90;19.50;;;;;;;9.97;100.00;102169.22;5010408;28;20092;-59
2022/10/04 02:09:38;;;;;;;25.42;18.40;;;;;;;9.90;100.00;102165.88;5015223;28;20117;-60
2022/10/04 02:12:05;;;;;;;26.15;20.10;;;;;;;9.90;100.00;102162.28;5015141;28;20026;-58
2022/10/04 02:14:35;;;;;;;28.83;20.08;;;;;;;9.86;100.00;102159.22;5015228;28;20030;-59
2022/10/04 02:17:04;;;;;;;26.85;19.33;;;;;;;9.83;100.00;102145.94;5015190;28;20050;-60
2022/10/04 02:19:39;;;;;;;25.73;18.90;;;;;;;9.76;100.00;102132.38;5015836;28;20422;-60
2022/10/04 02:22:08;;;;;;;25.65;19.08;;;;;;;9.76;100.00;102126.84;5015558;28;20422;-61
2022/10/04 02:24:37;;;;;;;24.13;19.25;;;;;;;9.78;100.00;102121.03;5015549;28;20064;-60
2022/10/04 02:27:03;;;;;;;25.98;19.20;;;;;;;9.76;100.00;102117.72;5016429;28;20033;-59
2022/10/04 02:29:28;;;;;;;27.00;19.67;;;;;;;9.74;100.00;102122.69;5015727;28;20034;-61
2022/10/04 02:34:39;;;;;;;26.13;19.77;;;;;;;9.66;100.00;102133.16;5015938;28;20049;-60
2022/10/04 02:37:06;;;;;;;28.23;21.10;;;;;;;9.58;100.00;102128.16;5015480;28;20022;-61
2022/10/04 02:39:47;;;;;;;27.67;19.95;;;;;;;9.46;100.00;102114.53;5015627;28;20100;-59
2022/10/04 02:42:33;;;;;;;27.38;20.35;;;;;;;9.47;100.00;102116.19;5015603;28;20149;-60
2022/10/04 02:45:07;;;;;;;28.75;20.33;;;;;;;9.41;100.00;102108.13;5015223;28;20029;-60
2022/10/04 02:47:43;;;;;;;28.05;20.35;;;;;;;9.32;100.00;102096.78;5015760;28;20044;-60
2022/10/04 02:50:34;;;;;;;28.40;20.65;;;;;;;9.34;100.00;102111.16;5015599;28;20037;-59
2022/10/04 02:53:15;;;;;;;27.42;20.48;;;;;;;9.27;100.00;102094.81;5015373;28;20026;-60
2022/10/04 02:55:41;;;;;;;28.15;20.15;;;;;;;9.21;100.00;102090.34;5014945;28;20030;-60
2022/10/04 02:58:09;;;;;;;26.95;20.95;;;;;;;9.11;100.00;102071.78;5015191;28;20048;-60
2022/10/04 03:00:46;;;;;;;28.52;21.48;;;;;;;9.04;100.00;102068.44;5015175;28;20030;-59
2022/10/04 03:03:20;;;;;;;27.17;20.98;;;;;;;9.11;100.00;102079.25;5014785;28;20022;-60
2022/10/04 03:06:12;;;;;;;28.45;21.30;;;;;;;9.08;100.00;102072.31;5014874;28;20041;-61
2022/10/04 03:08:54;;;;;;;28.63;20.65;;;;;;;9.05;100.00;102062.63;5014648;28;20076;-60
2022/10/04 03:11:22;;;;;;;26.15;20.70;;;;;;;9.01;100.00;102072.56;5014124;28;20393;-60
2022/10/04 03:13:52;;;;;;;27.33;21.05;;;;;;;8.90;100.00;102055.09;5014357;28;20381;-60
2022/10/04 03:16:18;;;;;;;27.23;21.35;;;;;;;8.96;100.00;102061.47;5012636;28;20173;-61
2022/10/04 03:18:46;;;;;;;28.98;21.33;;;;;;;8.87;100.00;102054.78;5012228;28;20165;-60
2022/10/04 03:21:14;;;;;;;28.75;21.30;;;;;;;8.92;100.00;102071.41;5014121;28;20053;-59
2022/10/04 03:23:42;;;;;;;30.05;21.77;;;;;;;8.86;100.00;102062.25;5014133;28;20034;-60
2022/10/04 03:26:41;;;;;;;27.02;20.95;;;;;;;8.87;100.00;102058.41;5014274;28;20033;-60
2022/10/04 03:29:10;;;;;;;28.15;21.98;;;;;;;8.83;100.00;102059.19;5014813;28;20427;-60
2022/10/04 03:31:40;;;;;;;27.70;21.30;;;;;;;8.70;100.00;102038.38;5014061;28;20022;-61
2022/10/04 03:34:13;;;;;;;27.75;21.65;;;;;;;8.64;100.00;102036.69;5014597;28;20459;-59
2022/10/04 03:36:39;;;;;;;30.90;21.43;;;;;;;8.71;100.00;102051.06;5014656;28;20105;-60
2022/10/04 03:39:08;;;;;;;28.55;21.23;;;;;;;8.68;100.00;102046.09;5014405;28;20415;-59
2022/10/04 03:41:38;;;;;;;28.75;21.10;;;;;;;8.54;100.00;102029.97;5013467;28;20132;-60
2022/10/04 03:44:06;;;;;;;27.55;21.08;;;;;;;8.63;100.00;102052.41;5014278;28;20026;-60
2022/10/04 03:46:31;;;;;;;28.42;21.35;;;;;;;8.60;100.00;102050.16;5014794;28;20389;-60
2022/10/04 03:48:58;;;;;;;28.58;21.10;;;;;;;8.55;100.00;102048.19;5014367;28;20033;-60
2022/10/04 03:51:25;;;;;;;28.65;22.00;;;;;;;8.54;100.00;102046.53;5014178;28;20139;-60
2022/10/04 03:53:54;;;;;;;26.30;21.05;;;;;;;8.50;100.00;102047.31;5014200;28;20040;-59
2022/10/04 03:56:29;;;;;;;27.90;21.00;;;;;;;8.51;100.00;102037.94;5014265;28;20030;-60
2022/10/04 03:58:55;;;;;;;28.67;20.80;;;;;;;8.50;100.00;102034.34;5014562;28;20030;-60
2022/10/04 04:01:33;;;;;;;27.77;20.38;;;;;;;8.39;100.00;102016.84;5014286;28;20034;-61
2022/10/04 04:04:21;;;;;;;26.27;20.23;;;;;;;8.46;100.00;102022.16;5013072;28;20025;-60
2022/10/04 04:06:51;;;;;;;28.63;20.13;;;;;;;8.45;100.00;102022.44;5013583;28;20022;-60
2022/10/04 04:09:50;;;;;;;27.15;20.15;;;;;;;8.43;100.00;102028.19;5013923;28;20100;-61
2022/10/04 04:12:21;;;;;;;27.67;20.80;;;;;;;8.38;100.00;102017.13;5013284;28;20026;-61
2022/10/04 04:14:50;;;;;;;27.33;20.75;;;;;;;8.34;100.00;102027.00;5013836;28;20036;-60
2022/10/04 04:17:24;;;;;;;28.40;20.73;;;;;;;8.35;100.00;102025.91;5012216;28;20046;-60
2022/10/04 04:19:50;;;;;;;28.92;20.67;;;;;;;8.33;100.00;102023.44;5013720;28;20032;-60
2022/10/04 04:22:16;;;;;;;28.33;20.40;;;;;;;8.23;100.00;102026.91;5012775;28;20026;-60
2022/10/04 04:24:43;;;;;;;29.77;20.42;;;;;;;8.26;100.00;102029.16;5014397;28;20025;-61
2022/10/04 04:27:11;;;;;;;27.88;20.35;;;;;;;8.20;100.00;102010.91;5013720;28;20444;-60
2022/10/04 04:29:58;;;;;;;30.52;21.02;;;;;;;8.23;100.00;102035.19;5012403;28;20457;-60
2022/10/04 04:32:29;;;;;;;31.25;20.98;;;;;;;8.20;100.00;102032.97;5013241;28;20052;-60
2022/10/04 04:34:59;;;;;;;28.23;20.42;;;;;;;8.19;100.00;102033.22;5013599;28;20030;-60
2022/10/04 04:37:25;;;;;;;30.33;22.05;;;;;;;8.19;100.00;102034.06;5013696;28;20445;-60
2022/10/04 04:39:54;;;;;;;28.45;21.60;;;;;;;8.16;100.00;102023.53;5013491;28;20080;-61
2022/10/04 04:42:36;;;;;;;28.13;21.35;;;;;;;8.20;100.00;102021.94;5012140;28;20022;-60
2022/10/04 04:45:13;;;;;;;29.63;20.38;;;;;;;8.21;100.00;102029.13;5013506;28;20048;-60
2022/10/04 04:47:45;;;;;;;27.40;19.73;;;;;;;8.20;100.00;102012.81;5013655;28;20521;-60
2022/10/04 04:50:20;;;;;;;27.42;19.98;;;;;;;8.21;100.00;102017.25;5013628;28;20112;-60
2022/10/04 04:52:49;;;;;;;25.42;20.42;;;;;;;8.22;100.00;102016.97;5013554;28;20076;-60
2022/10/04 04:55:24;;;;;;;29.15;20.52;;;;;;;8.21;100.00;102007.06;5013432;28;20465;-60
2022/10/04 04:57:54;;;;;;;26.98;19.77;;;;;;;8.21;100.00;102012.59;5013456;28;20053;-60
2022/10/04 05:00:27;;;;;;;28.30;19.73;;;;;;;8.21;100.00;102012.59;5013451;28;20215;-60
2022/10/04 05:02:55;;;;;;;26.63;19.73;;;;;;;8.14;100.00;101992.66;5013646;28;20037;-61
2022/10/04 05:05:44;;;;;;;27.58;19.83;;;;;;;8.25;100.00;102008.19;5012225;28;20026;-61
2022/10/04 05:08:11;;;;;;;26.40;19.60;;;;;;;8.22;100.00;102016.97;5013303;28;20581;-60
2022/10/04 05:10:59;;;;;;;27.52;19.15;;;;;;;8.19;100.00;102013.91;5013307;28;20038;-61
2022/10/04 05:13:44;;;;;;;25.90;19.08;;;;;;;8.20;100.00;102002.66;5026889;28;20049;-60
2022/10/04 05:16:23;;;;;;;27.63;19.25;;;;;;;8.16;100.00;102004.25;5031936;28;20133;-58
2022/10/04 05:19:00;;;;;;;26.10;18.98;;;;;;;8.07;100.00;102001.16;5031993;28;20068;-59
2022/10/04 05:21:30;;;;;;;25.83;19.30;;;;;;;8.11;100.00;102010.53;5032452;28;20025;-58
2022/10/04 05:23:58;;;;;;;26.13;19.00;;;;;;;8.06;100.00;102005.00;5032368;28;20445;-58
2022/10/04 05:26:27;;;;;;;26.30;18.33;;;;;;;8.07;100.00;102006.66;5031956;28;20028;-58
2022/10/04 05:28:58;;;;;;;26.20;19.75;;;;;;;7.96;100.00;101989.19;5031818;28;20445;-58
2022/10/04 05:31:54;;;;;;;24.75;18.63;;;;;;;8.04;100.00;102011.84;5031911;28;20073;-58
2022/10/04 05:34:23;;;;;;;27.08;18.83;;;;;;;8.03;100.00;102018.47;5032297;28;20222;-58
2022/10/04 05:36:59;;;;;;;27.10;17.80;;;;;;;8.01;100.00;102024.22;5032079;28;20449;-59
2022/10/04 05:39:43;;;;;;;26.67;18.38;;;;;;;7.99;100.00;102020.06;5031598;28;20045;-60
2022/10/04 05:42:19;;;;;;;;;;;;;;;7.99;100.00;102029.16;5032561;28;20029;-59
2022/10/04 05:44:51;;;;;;;27.25;18.20;;;;;;;7.96;100.00;102024.19;5030988;28;19913;-59
2022/10/04 05:47:21;;;;;;;26.63;18.70;;;;;;;7.91;100.00;102024.97;5032927;28;20059;-59
2022/10/04 05:49:47;;;;;;;29.17;19.10;;;;;;;7.94;100.00;102023.59;5032025;28;20568;-60
2022/10/04 05:52:27;;;;;;;26.15;19.17;;;;;;;7.82;100.00;101996.22;5029474;28;20452;-60
2022/10/04 05:55:19;;;;;;;26.73;19.77;;;;;;;7.93;100.00;102020.03;5030903;28;20026;-60
2022/10/04 05:57:58;;;;;;;26.17;18.25;;;;;;;7.91;100.00;102027.72;5030496;28;20033;-60
2022/10/04 06:00:31;;;;;;;26.38;18.85;;;;;;;7.93;100.00;102031.06;5030499;28;20029;-60
2022/10/04 06:03:15;;;;;;;25.90;18.63;;;;;;;7.95;100.00;102030.78;5030435;28;20037;-60
2022/10/04 06:06:01;;;;;;;28.45;19.05;;;;;;;7.90;100.00;102027.97;5029680;28;20029;-60
2022/10/04 06:08:50;;;;;;;25.60;17.63;;;;;;;7.99;100.00;102042.94;5032480;28;20095;-59
2022/10/04 06:11:21;;;;;;;24.92;17.92;;;;;;;8.04;100.00;102039.41;5032479;28;20048;-60
2022/10/04 06:13:52;;;;;;;25.65;18.42;;;;;;;8.05;100.00;102030.03;5031686;28;20034;-59
2022/10/04 06:16:36;;;;;;;26.35;18.60;;;;;;;8.08;100.00;102026.78;5031694;28;20155;-59
2022/10/04 06:19:24;;;;;;;26.75;18.20;;;;;;;8.12;100.00;102030.69;5031889;28;20042;-59
2022/10/04 06:21:50;;;;;;;25.05;17.77;;;;;;;8.15;100.00;102035.66;5032001;28;20022;-59
2022/10/04 06:24:26;;;;;;;25.55;18.15;;;;;;;8.17;100.00;102036.25;5032070;28;20072;-59
2022/10/04 06:27:00;;;;;;;24.02;17.60;;;;;;;8.14;100.00;102022.16;5030537;28;20037;-59
2022/10/04 06:29:29;;;;;;;;;;;;;;;8.30;100.00;102031.41;5032797;28;20088;-60
2022/10/04 06:32:29;;;;;;;25.02;17.45;;;;;;;8.33;100.00;102039.97;5032158;28;19951;-59
2022/10/04 06:35:16;;;;;;;24.88;17.75;;;;;;;8.39;100.00;102035.34;4971243;28;20050;-59
2022/10/04 06:38:26;;;;;;;27.83;17.58;;;;;;;8.44;100.00;102024.34;5028302;28;20072;-59
2022/10/04 06:40:54;;;;;;;25.80;17.00;;;;;;;8.49;100.00;102026.34;5019822;28;20129;-60
2022/10/04 06:43:43;;;;;;;23.60;16.23;;;;;;;8.45;100.00;102017.75;4988595;28;20038;-59
2022/10/04 06:46:21;;;;;;;24.17;17.23;;;;;;;8.54;100.00;102027.22;4990297;28;20481;-59
2022/10/04 06:49:17;;;;;;;26.70;16.80;;;;;;;8.57;100.00;102021.19;4990358;28;20074;-59
2022/10/04 06:52:00;;;;;;;25.60;17.35;;;;;;;8.62;100.00;102020.41;4990129;28;20066;-60
2022/10/04 06:54:49;;;;;;;25.00;16.55;;;;;;;8.58;100.00;101997.19;4992288;28;20103;-59
2022/10/04 06:57:58;;;;;;;24.63;16.55;;;;;;;8.69;100.00;102015.47;5003424;28;20038;-60
2022/10/04 07:00:26;;;;;;;23.85;15.93;;;;;;;8.71;100.00;102015.19;4968686;28;20049;-60
2022/10/04 07:03:00;;;;;;;24.30;16.10;;;;;;;8.78;100.00;102014.97;4971186;28;20490;-59
2022/10/04 07:05:41;;;;;;;23.75;16.00;;;;;;;8.81;100.00;102015.28;4994108;28;20397;-58
2022/10/04 07:08:32;;;;;;;25.33;15.60;;;;;;;8.82;100.00;102007.84;5012869;28;20080;-60
2022/10/04 07:11:22;;;;;;;24.35;15.48;;;;;;;8.82;100.00;102007.84;5012852;28;20029;-60
2022/10/04 07:14:02;;;;;;;23.67;15.93;;;;;;;8.74;100.00;102009.16;5012421;28;20030;-60
2022/10/04 07:16:39;;;;;;;21.95;15.27;;;;;;;8.80;100.00;102012.78;5011253;28;20058;-60
2022/10/04 07:19:29;;;;;;;25.00;15.68;;;;;;;8.74;100.00;102007.22;5012824;28;20124;-60
2022/10/04 07:22:07;;;;;;;25.17;16.63;;;;;;;8.84;100.00;102013.91;5011025;28;20079;-61
2022/10/04 07:24:56;;;;;;;25.92;16.63;;;;;;;8.87;100.00;102005.09;5012820;28;20061;-60
2022/10/04 07:27:40;;;;;;;23.88;15.63;;;;;;;8.94;100.00;102004.88;5013374;28;20038;-59
2022/10/04 07:30:08;;;;;;;24.58;15.98;;;;;;;9.01;100.00;102002.72;5012571;28;20029;-60
2022/10/04 07:32:37;;;;;;;26.10;16.40;;;;;;;9.11;100.00;102007.47;5012239;28;20125;-60
2022/10/04 07:35:09;;;;;;;24.10;16.83;;;;;;;9.19;100.00;102009.72;5012390;28;20462;-60
2022/10/04 07:37:59;;;;;;;24.35;15.73;;;;;;;9.27;100.00;102006.44;5012376;28;20472;-60
2022/10/04 07:41:09;;;;;;;23.55;14.95;;;;;;;9.37;100.00;102000.13;5027272;28;20030;-60
2022/10/04 07:44:14;;;;;;;24.40;15.32;;;;;;;9.48;100.00;102012.06;5011975;28;20034;-60
2022/10/04 07:46:52;;;;;;;23.63;15.13;;;;;;;9.57;100.00;102012.34;5005814;28;20042;-59
2022/10/04 07:49:20;;;;;;;24.92;15.70;;;;;;;9.57;100.00;101998.53;5012447;28;20380;-59
2022/10/04 07:51:55;;;;;;;25.67;15.88;;;;;;;9.76;100.00;102012.72;5011102;28;20061;-59
2022/10/04 07:54:32;;;;;;;23.25;15.18;;;;;;;9.85;100.00;102019.38;5012609;28;20041;-60
2022/10/04 07:57:07;;;;;;;23.17;15.98;;;;;;;9.93;100.00;102018.84;5012391;28;20049;-60
2022/10/04 07:59:59;;;;;;;23.15;15.75;;;;;;;9.99;100.00;102009.44;5012205;28;20033;-59
2022/10/04 08:02:36;;;;;;;25.85;16.35;;;;;;;10.09;100.00;102018.84;5010243;28;20454;-60
2022/10/04 08:05:17;;;;;;;26.40;16.30;;;;;;;10.17;100.00;102007.25;5009431;28;20057;-61
2022/10/04 08:07:54;;;;;;;25.67;16.45;;;;;;;10.23;100.00;102002.56;5027208;28;20025;-60
2022/10/04 08:10:57;;;;;;;26.60;16.45;;;;;;;10.34;100.00;102003.41;5011853;28;20465;-61
2022/10/04 08:13:44;;;;;;;23.20;16.23;;;;;;;10.38;100.00;101999.00;5011648;28;20084;-60
2022/10/04 08:16:40;;;;;;;24.73;16.85;;;;;;;10.41;100.00;101985.44;5011391;28;20058;-59
2022/10/04 08:19:37;;;;;;;25.23;16.15;;;;;;;10.55;100.00;102002.31;5005971;28;20148;-59
2022/10/04 08:22:26;;;;;;;23.33;15.68;;;;;;;10.60;100.00;101996.78;5009355;28;20026;-58
2022/10/04 08:25:01;;;;;;;26.08;16.08;;;;;;;10.64;100.00;101988.75;5009294;28;20121;-58
2022/10/04 08:30:51;;;;;;;26.73;15.75;;;;;;;10.85;100.00;101986.78;5011747;28;20559;-59
2022/10/04 08:33:28;;;;;;;23.55;15.25;;;;;;;10.98;100.00;101985.34;5010943;28;20103;-59
2022/10/04 08:36:25;;;;;;;24.73;15.35;;;;;;;10.98;100.00;101981.78;5011058;28;20038;-59
2022/10/04 08:38:58;;;;;;;23.90;15.10;;;;;;;11.23;99.22;102003.03;5011289;28;20036;-59
2022/10/04 08:41:34;;;;;;;25.00;14.80;;;;;;;11.22;98.56;101981.97;5011073;28;20041;-59
2022/10/04 08:44:05;;;;;;;26.13;15.13;;;;;;;11.41;97.52;102004.31;5009580;28;20049;-59
2022/10/04 08:46:52;;;;;;;26.23;15.65;;;;;;;11.52;98.10;101992.09;5010757;28;20057;-59
2022/10/04 08:49:52;;;;;;;24.38;15.40;;;;;;;11.66;96.73;101991.47;5010623;28;20075;-59
2022/10/04 08:52:36;;;;;;;26.10;14.63;;;;;;;11.76;94.27;101993.34;5010601;28;20450;-59
2022/10/04 08:55:07;;;;;;;24.23;14.40;;;;;;;11.85;94.60;102002.72;5011785;28;20048;-59
2022/10/04 08:57:49;;;;;;;21.08;13.25;;;;;;;11.97;92.41;102007.91;5010653;28;20056;-59
2022/10/04 09:01:07;;;;;;;21.90;13.15;;;;;;;12.09;93.33;102005.66;5010683;28;20034;-59
2022/10/04 09:03:41;;;;;;;23.25;13.68;;;;;;;12.16;89.59;101999.78;4984811;28;20041;-59
2022/10/04 09:06:25;;;;;;;21.85;13.30;;;;;;;12.19;90.86;101993.63;5010378;28;20088;-59
2022/10/04 09:09:12;;;;;;;23.17;13.68;;;;;;;12.36;90.25;102003.53;5010136;28;20040;-59
2022/10/04 09:11:40;;;;;;;23.88;13.35;;;;;;;12.44;88.61;101998.16;5010493;28;20038;-59
2022/10/04 09:14:18;;;;;;;23.42;14.15;;;;;;;12.50;87.91;102003.69;5010481;28;20066;-58
2022/10/04 09:16:51;;;;;;;22.55;14.07;;;;;;;12.37;87.72;101981.03;5010289;28;20058;-58
2022/10/04 09:20:00;;;;;;;22.85;13.30;;;;;;;12.66;88.64;102004.38;5009480;28;20045;-59
2022/10/04 09:22:29;;;;;;;21.98;13.30;;;;;;;12.76;87.84;102002.31;5010720;28;20568;-59
2022/10/04 09:25:20;;;;;;;22.00;13.00;;;;;;;12.83;87.50;101993.66;5010365;28;20133;-59
2022/10/04 09:28:00;;;;;;;24.10;13.27;;;;;;;12.89;86.34;102000.81;5010312;28;20127;-59
2022/10/04 09:30:58;;;;;;;22.25;12.90;;;;;;;12.95;86.85;102005.16;5010110;28;20034;-58
2022/10/04 09:33:41;;;;;;;24.20;13.32;;;;;;;13.02;85.24;101990.94;5010006;28;20496;-59
2022/10/04 09:36:33;;;;;;;23.13;13.70;;;;;;;13.06;85.43;101980.91;5009937;28;20358;-59
2022/10/04 09:39:31;;;;;;;21.88;13.60;;;;;;;13.18;84.70;101974.91;5008632;28;20500;-59
2022/10/04 09:42:27;;;;;;;22.65;13.55;;;;;;;13.27;84.42;101972.31;5010101;28;20077;-59
2022/10/04 09:45:05;;;;;;;27.38;13.50;;;;;;;13.37;83.91;101980.50;5009952;28;20033;-59
2022/10/04 09:48:06;;;;;;;22.85;13.73;;;;;;;13.46;83.95;101975.16;5010445;28;20021;-58
2022/10/04 09:50:51;;;;;;;22.40;13.50;;;;;;;13.48;83.04;101977.63;4978509;28;20049;-60
2022/10/04 09:53:35;;;;;;;22.75;13.20;;;;;;;13.59;83.23;101970.00;5008413;28;20420;-60
2022/10/04 09:56:14;;;;;;;;;;;;;;;13.64;85.40;101967.97;5010608;28;20101;-60
2022/10/04 09:59:05;;;;;;;22.05;12.93;;;;;;;13.71;81.04;101973.16;5010339;28;20040;-59
2022/10/04 10:01:46;;;;;;;22.60;13.10;;;;;;;13.78;81.04;101978.34;5010037;28;20045;-59
2022/10/04 10:04:49;;;;;;;25.10;13.38;;;;;;;13.80;81.33;101982.47;5010060;28;20030;-59
2022/10/04 10:07:29;;;;;;;22.27;12.90;;;;;;;13.78;79.87;101973.63;4979392;28;20058;-59
2022/10/04 10:13:42;;;;;;;21.88;13.27;;;;;;;13.97;80.82;101962.47;5010210;28;20581;-60
2022/10/04 10:16:28;;;;;;;22.37;12.73;;;;;;;14.08;80.25;101965.09;5009878;28;20038;-60
2022/10/04 10:18:59;;;;;;;22.13;12.48;;;;;;;14.17;79.50;101960.50;5010192;28;20450;-60
2022/10/04 10:21:46;;;;;;;21.40;12.80;;;;;;;14.23;79.65;101958.47;5008621;28;20622;-60
2022/10/04 10:24:42;;;;;;;21.23;12.43;;;;;;;14.32;78.64;101954.66;5010134;28;20041;-60
2022/10/04 10:27:26;;;;;;;21.63;12.30;;;;;;;14.33;76.52;101952.72;5010076;28;20037;-60
2022/10/04 10:30:02;;;;;;;20.83;12.15;;;;;;;14.35;76.63;101951.28;5012477;28;20037;-60
2022/10/04 10:33:05;;;;;;;21.45;12.32;;;;;;;14.41;78.16;101948.38;5013391;28;20458;-60
2022/10/04 10:35:59;;;;;;;22.17;12.52;;;;;;;14.47;77.26;101941.63;5011092;28;20038;-60
2022/10/04 10:38:47;;;;;;;21.35;12.40;;;;;;;14.53;76.98;101943.16;5013103;28;20034;-60
2022/10/04 10:41:31;;;;;;;20.00;11.80;;;;;;;14.58;76.01;101948.66;5013145;28;20057;-60
2022/10/04 10:44:22;;;;;;;20.48;12.05;;;;;;;14.65;76.11;101949.06;5013022;28;20350;-60
2022/10/04 10:47:12;;;;;;;21.67;12.38;;;;;;;14.71;75.55;101951.78;5013152;28;20401;-60
2022/10/04 10:50:21;;;;;;;23.23;12.23;;;;;;;14.78;76.72;101952.22;5013126;28;20418;-60
2022/10/04 10:53:24;;;;;;;20.65;11.57;;;;;;;14.97;76.06;101955.72;5013257;28;20057;-61
2022/10/04 10:56:07;;;;;;;20.80;12.02;;;;;;;15.09;74.70;101969.16;5013184;28;20033;-61
2022/10/04 10:58:50;;;;;;;19.65;11.43;;;;;;;15.15;73.83;101967.09;5013070;28;20500;-61
2022/10/04 11:01:53;;;;;;;20.90;11.90;;;;;;;15.23;73.21;101959.94;5012989;28;20544;-61
2022/10/04 11:04:21;;;;;;;19.75;12.77;;;;;;;15.30;72.82;101949.22;5012757;28;20032;-60
2022/10/04 11:07:12;;;;;;;20.60;12.30;;;;;;;15.26;73.04;101939.81;5012562;28;20034;-60
2022/10/04 11:10:03;;;;;;;20.25;11.63;;;;;;;15.41;72.76;101945.06;5012885;28;20104;-60
2022/10/04 11:12:44;;;;;;;21.30;11.88;;;;;;;15.42;72.73;101935.56;5012599;28;20037;-61
2022/10/04 11:15:37;;;;;;;20.23;12.00;;;;;;;15.52;71.92;101930.91;5012431;28;20551;-61
2022/10/04 11:18:18;;;;;;;19.60;11.88;;;;;;;15.49;72.03;101925.97;5010999;28;20080;-61
2022/10/04 11:20:58;;;;;;;19.75;11.85;;;;;;;15.58;72.12;101926.88;5011032;28;20034;-61
2022/10/04 11:23:50;;;;;;;22.92;12.93;;;;;;;15.72;71.44;101921.25;5012636;28;20034;-60
2022/10/04 11:26:49;;;;;;;24.63;11.73;;;;;;;15.77;70.84;101915.53;5012925;28;20034;-61
2022/10/04 11:29:29;;;;;;;19.48;11.45;;;;;;;15.84;70.44;101915.94;5012461;28;20041;-60
2022/10/04 11:32:00;;;;;;;20.48;11.73;;;;;;;15.93;70.11;101904.03;5012013;28;20042;-60
2022/10/04 11:35:03;;;;;;;19.85;12.00;;;;;;;15.97;70.66;101903.06;5011949;28;20116;-61
2022/10/04 11:38:06;;;;;;;20.63;11.45;;;;;;;16.01;70.67;101898.50;5012165;28;20030;-60
2022/10/04 11:41:06;;;;;;;19.65;11.18;;;;;;;16.19;69.65;101893.03;5012136;28;20037;-61
2022/10/04 11:44:13;;;;;;;20.88;11.85;;;;;;;16.32;69.56;101880.13;4989172;28;20484;-60
2022/10/04 11:47:16;;;;;;;19.95;11.30;;;;;;;16.59;68.62;101889.47;5011919;28;20368;-61
2022/10/04 11:50:07;;;;;;;20.35;11.40;;;;;;;16.80;68.64;101896.13;5011609;28;20060;-61
2022/10/04 11:52:48;;;;;;;21.77;11.73;;;;;;;17.01;66.44;101889.97;5011812;28;20030;-59
2022/10/04 11:55:22;;;;;;;21.65;12.02;;;;;;;17.31;65.71;101888.22;5010575;28;20637;-60
2022/10/04 11:57:53;;;;;;;19.25;11.30;;;;;;;17.40;63.82;101893.00;5012002;28;20044;-61
2022/10/04 12:00:24;;;;;;;20.67;11.18;;;;;;;17.41;63.41;101889.91;5012290;28;20030;-61
2022/10/04 12:03:27;;;;;;;20.10;11.20;;;;;;;17.44;64.34;101880.03;5010410;28;20030;-59
2022/10/04 12:06:15;;;;;;;17.58;11.13;;;;;;;17.40;61.41;101890.19;5012091;28;20034;-60
2022/10/04 12:08:47;;;;;;;19.15;11.07;;;;;;;17.36;62.13;101883.63;5011792;28;20120;-61
2022/10/04 12:11:12;;;;;;;20.25;11.55;;;;;;;17.41;60.35;101891.84;5002082;28;20052;-60
2022/10/04 12:14:23;;;;;;;19.27;11.33;;;;;;;17.45;62.62;101873.28;5003611;28;20053;-60